Wetterdaten: Mittwoch, 27.05.2015
Datum Zeit Temp. A. Feuchte A. Luftdruck Regen Wind Richtung Richtung Sonnenschein ET UV Solar Taupunkt Windchill Windben Empfang
27.05.2015 00:00 9,8 C 81 % 1018,2 hPa 0,0 l/m 0,4 km/h (0 Bft) S 184 0 min 0,000 mm 0,0 UV-I 0 W/m 6,7 C 9,8 C 4,0 km/h (1 Bft) 0,00 %
27.05.2015 00:15 9,8 C 79 % 1018,3 hPa 0,0 l/m 1,4 km/h (1 Bft) W-SW 255 0 min 0,000 mm 0,0 UV-I 0 W/m 6,3 C 9,8 C 4,0 km/h (1 Bft) 0,00 %
27.05.2015 00:30 9,8 C 80 % 1018,3 hPa 0,0 l/m 0,0 km/h (0 Bft) SW 222 0 min 0,000 mm 0,0 UV-I 0 W/m 6,5 C 9,8 C 0,0 km/h (0 Bft) 0,00 %
27.05.2015 00:45 9,7 C 78 % 1018,5 hPa 0,0 l/m 3,2 km/h (1 Bft) W-SW 252 0 min 0,000 mm 0,0 UV-I 0 W/m 6,1 C 9,7 C 7,9 km/h (2 Bft) 0,00 %
27.05.2015 01:00 9,8 C 78 % 1018,4 hPa 0,0 l/m 4,3 km/h (1 Bft) W-SW 252 0 min 0,000 mm 0,0 UV-I 0 W/m 6,1 C 9,8 C 7,9 km/h (2 Bft) 0,00 %
27.05.2015 01:15 9,7 C 78 % 1018,5 hPa 0,0 l/m 0,4 km/h (0 Bft) S-SW 208 0 min 0,000 mm 0,0 UV-I 0 W/m 6,1 C 9,7 C 4,0 km/h (1 Bft) 0,00 %
27.05.2015 01:30 9,7 C 78 % 1018,6 hPa 0,0 l/m 0,0 km/h (0 Bft) S 189 0 min 0,000 mm 0,0 UV-I 0 W/m 6,1 C 9,7 C 0,0 km/h (0 Bft) 0,00 %
27.05.2015 01:45 9,6 C 80 % 1018,7 hPa 0,0 l/m 0,0 km/h (0 Bft) SW 231 0 min 0,000 mm 0,0 UV-I 0 W/m 6,3 C 9,6 C 0,0 km/h (0 Bft) 0,00 %
27.05.2015 02:00 9,5 C 80 % 1018,7 hPa 0,0 l/m 0,0 km/h (0 Bft) SW 217 0 min 0,000 mm 0,0 UV-I 0 W/m 6,2 C 9,5 C 0,0 km/h (0 Bft) 0,00 %
27.05.2015 02:15 9,4 C 80 % 1018,6 hPa 0,0 l/m 0,0 km/h (0 Bft) S 173 0 min 0,000 mm 0,0 UV-I 0 W/m 6,1 C 9,4 C 0,0 km/h (0 Bft) 0,00 %
27.05.2015 02:30 9,3 C 81 % 1018,6 hPa 0,0 l/m 1,4 km/h (1 Bft) W-SW 256 0 min 0,000 mm 0,0 UV-I 0 W/m 6,2 C 9,3 C 4,0 km/h (1 Bft) 0,00 %
27.05.2015 02:45 9,4 C 81 % 1018,6 hPa 0,0 l/m 0,7 km/h (0 Bft) W-SW 238 0 min 0,000 mm 0,0 UV-I 0 W/m 6,3 C 9,4 C 4,0 km/h (1 Bft) 0,00 %
27.05.2015 03:00 9,4 C 81 % 1018,6 hPa 0,0 l/m 1,8 km/h (1 Bft) SW 225 0 min 0,000 mm 0,0 UV-I 0 W/m 6,3 C 9,4 C 4,0 km/h (1 Bft) 0,00 %
27.05.2015 03:15 9,3 C 81 % 1018,9 hPa 0,0 l/m 0,4 km/h (0 Bft) SW 226 0 min 0,000 mm 0,0 UV-I 0 W/m 6,2 C 9,3 C 4,0 km/h (1 Bft) 0,00 %
27.05.2015 03:30 9,2 C 81 % 1019,1 hPa 0,0 l/m 0,0 km/h (0 Bft) W-SW 251 0 min 0,000 mm 0,0 UV-I 0 W/m 6,1 C 9,2 C 0,0 km/h (0 Bft) 0,00 %
27.05.2015 03:45 9,0 C 81 % 1019,1 hPa 0,0 l/m 0,4 km/h (0 Bft) SW 221 0 min 0,000 mm 0,0 UV-I 0 W/m 5,9 C 9,0 C 4,0 km/h (1 Bft) 0,00 %
27.05.2015 04:00 8,5 C 82 % 1019,4 hPa 0,0 l/m 0,0 km/h (0 Bft) SW 217 0 min 0,000 mm 0,0 UV-I 0 W/m 5,6 C 8,5 C 0,0 km/h (0 Bft) 0,00 %
27.05.2015 04:15 8,5 C 82 % 1019,3 hPa 0,0 l/m 0,0 km/h (0 Bft) SW 220 0 min 0,000 mm 0,0 UV-I 0 W/m 5,6 C 8,5 C 0,0 km/h (0 Bft) 0,00 %
27.05.2015 04:30 8,5 C 82 % 1019,5 hPa 0,0 l/m 0,4 km/h (0 Bft) W-SW 251 0 min 0,000 mm 0,0 UV-I 0 W/m 5,6 C 8,5 C 4,0 km/h (1 Bft) 0,00 %
27.05.2015 04:45 8,5 C 82 % 1019,6 hPa 0,0 l/m 0,0 km/h (0 Bft) S-SW 211 0 min 0,000 mm 0,0 UV-I 0 W/m 5,6 C 8,5 C 0,0 km/h (0 Bft) 0,00 %
27.05.2015 05:00 8,3 C 84 % 1019,6 hPa 0,0 l/m 0,0 km/h (0 Bft) S-SW 212 0 min 0,000 mm 0,0 UV-I 0 W/m 5,8 C 8,3 C 0,0 km/h (0 Bft) 0,00 %
27.05.2015 05:15 8,4 C 84 % 1019,6 hPa 0,0 l/m 0,0 km/h (0 Bft) S 187 0 min 0,000 mm 0,0 UV-I 0 W/m 5,9 C 8,4 C 0,0 km/h (0 Bft) 0,00 %
27.05.2015 05:30 8,4 C 82 % 1019,8 hPa 0,0 l/m 0,4 km/h (0 Bft) W-SW 255 0 min 0,000 mm 0,0 UV-I 0 W/m 5,5 C 8,4 C 4,0 km/h (1 Bft) 0,00 %
27.05.2015 05:45 8,5 C 82 % 1020,1 hPa 0,0 l/m 0,0 km/h (0 Bft) S-SW 207 0 min 0,000 mm 0,0 UV-I 3 W/m 5,6 C 8,5 C 0,0 km/h (0 Bft) 0,00 %
27.05.2015 06:00 8,4 C 82 % 1020,4 hPa 0,0 l/m 1,4 km/h (1 Bft) S-SW 200 0 min 0,000 mm 0,0 UV-I 4 W/m 5,5 C 8,4 C 4,0 km/h (1 Bft) 0,00 %
27.05.2015 06:15 8,5 C 79 % 1020,2 hPa 0,0 l/m 0,0 km/h (0 Bft) SW 232 0 min 0,000 mm 0,0 UV-I 20 W/m 5,1 C 8,5 C 0,0 km/h (0 Bft) 0,00 %
27.05.2015 06:30 8,6 C 79 % 1020,5 hPa 0,0 l/m 2,9 km/h (1 Bft) W-SW 252 0 min 0,000 mm 0,0 UV-I 35 W/m 5,2 C 8,6 C 4,0 km/h (1 Bft) 0,00 %
27.05.2015 06:45 8,6 C 79 % 1020,6 hPa 0,0 l/m 0,7 km/h (0 Bft) SW 224 0 min 0,000 mm 0,0 UV-I 29 W/m 5,2 C 8,6 C 4,0 km/h (1 Bft) 0,00 %
27.05.2015 07:00 8,7 C 78 % 1020,4 hPa 0,0 l/m 0,0 km/h (0 Bft) S 178 0 min 0,000 mm 0,0 UV-I 36 W/m 5,1 C 8,7 C 0,0 km/h (0 Bft) 0,00 %
27.05.2015 07:15 8,7 C 79 % 1020,8 hPa 0,0 l/m 0,0 km/h (0 Bft) SW 221 0 min 0,000 mm 0,0 UV-I 44 W/m 5,3 C 8,7 C 0,0 km/h (0 Bft) 0,00 %
27.05.2015 07:30 8,8 C 79 % 1020,8 hPa 0,0 l/m 0,0 km/h (0 Bft) S 174 0 min 0,000 mm 1,0 UV-I 60 W/m 5,4 C 8,8 C 0,0 km/h (0 Bft) 0,00 %
27.05.2015 07:45 9,0 C 78 % 1020,9 hPa 0,0 l/m 0,4 km/h (0 Bft) W-NW 284 0 min 0,000 mm 1,0 UV-I 74 W/m 5,4 C 9,0 C 4,0 km/h (1 Bft) 0,00 %
27.05.2015 08:00 9,2 C 78 % 1020,8 hPa 0,0 l/m 0,0 km/h (0 Bft) SW 214 0 min 0,000 mm 1,0 UV-I 71 W/m 5,6 C 9,2 C 0,0 km/h (0 Bft) 0,00 %
27.05.2015 08:15 9,5 C 77 % 1020,9 hPa 0,0 l/m 0,0 km/h (0 Bft) W-SW 252 0 min 0,000 mm 1,0 UV-I 103 W/m 5,7 C 9,5 C 0,0 km/h (0 Bft) 0,00 %
27.05.2015 08:30 9,7 C 77 % 1021,0 hPa 0,0 l/m 0,0 km/h (0 Bft) W-SW 252 0 min 0,000 mm 1,0 UV-I 118 W/m 5,9 C 9,7 C 0,0 km/h (0 Bft) 0,00 %
27.05.2015 08:45 9,7 C 76 % 1020,9 hPa 0,0 l/m 0,0 km/h (0 Bft) S 175 0 min 0,000 mm 1,0 UV-I 124 W/m 5,7 C 9,7 C 0,0 km/h (0 Bft) 0,00 %
27.05.2015 09:00 10,0 C 75 % 1020,8 hPa 0,0 l/m 0,4 km/h (0 Bft) SW 229 0 min 0,000 mm 1,0 UV-I 158 W/m 5,8 C 10,0 C 4,0 km/h (1 Bft) 0,00 %
27.05.2015 09:15 10,1 C 74 % 1020,8 hPa 0,0 l/m 0,0 km/h (0 Bft) S 180 0 min 0,000 mm 1,0 UV-I 170 W/m 5,7 C 10,1 C 0,0 km/h (0 Bft) 0,00 %
27.05.2015 09:30 10,1 C 74 % 1020,9 hPa 0,0 l/m 0,0 km/h (0 Bft) S-SW 203 0 min 0,000 mm 1,0 UV-I 156 W/m 5,7 C 10,1 C 0,0 km/h (0 Bft) 0,00 %
27.05.2015 09:45 10,2 C 74 % 1021,1 hPa 0,0 l/m 1,4 km/h (1 Bft) SW 217 0 min 0,000 mm 1,0 UV-I 177 W/m 5,8 C 10,2 C 4,0 km/h (1 Bft) 0,00 %
27.05.2015 10:00 10,1 C 75 % 1021,0 hPa 0,0 l/m 0,0 km/h (0 Bft) SO 124 0 min 0,000 mm 1,0 UV-I 129 W/m 5,9 C 10,1 C 0,0 km/h (0 Bft) 0,00 %
27.05.2015 10:15 9,9 C 76 % 1021,1 hPa 0,0 l/m 0,4 km/h (0 Bft) S-SW 202 0 min 0,000 mm 1,0 UV-I 127 W/m 5,9 C 9,9 C 4,0 km/h (1 Bft) 0,00 %
27.05.2015 10:30 9,9 C 77 % 1021,2 hPa 0,0 l/m 0,0 km/h (0 Bft) S-SW 200 0 min 0,000 mm 1,0 UV-I 118 W/m 6,1 C 9,9 C 0,0 km/h (0 Bft) 0,00 %
27.05.2015 10:45 9,9 C 76 % 1021,2 hPa 0,0 l/m 0,0 km/h (0 Bft) S 179 0 min 0,000 mm 1,0 UV-I 105 W/m 5,9 C 9,9 C 0,0 km/h (0 Bft) 0,00 %
27.05.2015 11:00 10,1 C 75 % 1021,1 hPa 0,0 l/m 0,0 km/h (0 Bft) SW 230 0 min 0,000 mm 1,0 UV-I 148 W/m 5,9 C 10,1 C 0,0 km/h (0 Bft) 0,00 %
27.05.2015 11:15 10,3 C 73 % 1021,1 hPa 0,0 l/m 1,4 km/h (1 Bft) SW 216 0 min 0,000 mm 1,0 UV-I 150 W/m 5,7 C 10,3 C 4,0 km/h (1 Bft) 0,00 %
27.05.2015 11:30 10,9 C 72 % 1021,0 hPa 0,0 l/m 0,4 km/h (0 Bft) N-NW 338 0 min 0,000 mm 2,0 UV-I 183 W/m 6,1 C 10,9 C 4,0 km/h (1 Bft) 0,00 %
27.05.2015 11:45 12,2 C 68 % 1020,6 hPa 0,0 l/m 0,0 km/h (0 Bft) W-NW 282 0 min 0,000 mm 4,0 UV-I 398 W/m 6,5 C 12,2 C 0,0 km/h (0 Bft) 0,00 %
27.05.2015 12:00 13,3 C 64 % 1020,5 hPa 0,0 l/m 2,2 km/h (1 Bft) W-SW 255 15 min 0,000 mm 4,0 UV-I 514 W/m 6,6 C 13,3 C 4,0 km/h (1 Bft) 0,00 %
27.05.2015 12:15 13,1 C 63 % 1020,3 hPa 0,0 l/m 8,3 km/h (2 Bft) SW 223 15 min 0,000 mm 2,0 UV-I 529 W/m 6,2 C 11,9 C 15,8 km/h (3 Bft) 0,00 %
27.05.2015 12:30 12,7 C 62 % 1020,4 hPa 0,0 l/m 2,9 km/h (1 Bft) W-SW 254 0 min 0,000 mm 2,0 UV-I 338 W/m 5,6 C 12,7 C 7,9 km/h (2 Bft) 0,00 %
27.05.2015 12:45 12,9 C 62 % 1020,5 hPa 0,0 l/m 2,9 km/h (1 Bft) W-NW 292 0 min 0,000 mm 3,0 UV-I 400 W/m 5,8 C 12,9 C 4,0 km/h (1 Bft) 0,00 %
27.05.2015 13:00 12,5 C 64 % 1020,5 hPa 0,0 l/m 6,8 km/h (2 Bft) W-SW 256 0 min 0,000 mm 1,0 UV-I 273 W/m 5,9 C 12,2 C 11,9 km/h (2 Bft) 0,00 %
27.05.2015 13:15 11,8 C 66 % 1020,8 hPa 0,0 l/m 3,2 km/h (1 Bft) S-SO 149 0 min 0,000 mm 1,0 UV-I 144 W/m 5,7 C 11,8 C 7,9 km/h (2 Bft) 0,00 %
27.05.2015 13:30 11,7 C 68 % 1020,8 hPa 0,0 l/m 0,0 km/h (0 Bft) S 184 0 min 0,000 mm 3,0 UV-I 185 W/m 6,0 C 11,7 C 0,0 km/h (0 Bft) 0,00 %
27.05.2015 13:45 12,7 C 66 % 1020,5 hPa 0,0 l/m 1,8 km/h (1 Bft) S-SW 207 0 min 0,000 mm 1,0 UV-I 411 W/m 6,5 C 12,7 C 4,0 km/h (1 Bft) 0,00 %
27.05.2015 14:00 11,7 C 72 % 1020,7 hPa 0,0 l/m 0,4 km/h (0 Bft) S-SW 203 0 min 0,000 mm 1,0 UV-I 94 W/m 6,8 C 11,7 C 4,0 km/h (1 Bft) 0,00 %
27.05.2015 14:15 11,1 C 73 % 1020,8 hPa 0,0 l/m 4,0 km/h (1 Bft) W-SW 255 0 min 0,000 mm 1,0 UV-I 122 W/m 6,4 C 11,1 C 7,9 km/h (2 Bft) 0,00 %
27.05.2015 14:30 11,5 C 72 % 1020,8 hPa 0,0 l/m 2,9 km/h (1 Bft) W-SW 252 0 min 0,000 mm 2,0 UV-I 144 W/m 6,6 C 11,5 C 4,0 km/h (1 Bft) 0,00 %
27.05.2015 14:45 12,3 C 65 % 1020,7 hPa 0,0 l/m 15,8 km/h (3 Bft) W-SW 253 0 min 0,000 mm 2,0 UV-I 282 W/m 5,9 C 7,6 C 19,8 km/h (3 Bft) 0,00 %
27.05.2015 15:00 12,5 C 57 % 1020,4 hPa 0,0 l/m 4,3 km/h (1 Bft) W-SW 252 0 min 0,000 mm 3,0 UV-I 280 W/m 4,2 C 12,5 C 7,9 km/h (2 Bft) 0,00 %
27.05.2015 15:15 13,7 C 56 % 1020,1 hPa 0,0 l/m 1,8 km/h (1 Bft) S 180 15 min 0,000 mm 3,0 UV-I 524 W/m 5,1 C 13,7 C 4,0 km/h (1 Bft) 0,00 %
27.05.2015 15:30 14,0 C 58 % 1020,0 hPa 0,0 l/m 2,9 km/h (1 Bft) S 177 15 min 0,000 mm 2,0 UV-I 431 W/m 5,9 C 14,0 C 4,0 km/h (1 Bft) 0,00 %
27.05.2015 15:45 13,0 C 59 % 1020,4 hPa 0,0 l/m 1,4 km/h (1 Bft) SW 233 0 min 0,000 mm 1,0 UV-I 269 W/m 5,2 C 13,0 C 4,0 km/h (1 Bft) 0,00 %
27.05.2015 16:00 12,3 C 61 % 1020,5 hPa 0,0 l/m 5,4 km/h (1 Bft) W-SW 255 0 min 0,000 mm 1,0 UV-I 159 W/m 5,0 C 12,3 C 7,9 km/h (2 Bft) 0,00 %
27.05.2015 16:15 12,3 C 62 % 1020,5 hPa 0,0 l/m 1,4 km/h (1 Bft) W-SW 254 0 min 0,000 mm 2,0 UV-I 269 W/m 5,2 C 12,3 C 4,0 km/h (1 Bft) 0,00 %
27.05.2015 16:30 12,4 C 61 % 1020,6 hPa 0,0 l/m 9,0 km/h (2 Bft) W-SW 254 0 min 0,000 mm 1,0 UV-I 242 W/m 5,1 C 10,8 C 11,9 km/h (2 Bft) 0,00 %
27.05.2015 16:45 11,8 C 63 % 1020,4 hPa 0,0 l/m 0,7 km/h (0 Bft) NW 326 0 min 0,000 mm 1,0 UV-I 147 W/m 5,0 C 11,8 C 4,0 km/h (1 Bft) 0,00 %
27.05.2015 17:00 12,5 C 63 % 1020,2 hPa 0,0 l/m 9,4 km/h (2 Bft) SW 230 0 min 0,000 mm 2,0 UV-I 211 W/m 5,7 C 10,7 C 11,9 km/h (2 Bft) 0,00 %
27.05.2015 17:15 14,0 C 59 % 1019,8 hPa 0,0 l/m 3,2 km/h (1 Bft) W-SW 237 15 min 0,000 mm 2,0 UV-I 849 W/m 6,1 C 14,0 C 4,0 km/h (1 Bft) 0,00 %
27.05.2015 17:30 13,4 C 61 % 1020,0 hPa 0,0 l/m 9,0 km/h (2 Bft) W 269 0 min 0,000 mm 2,0 UV-I 276 W/m 6,0 C 11,9 C 11,9 km/h (2 Bft) 0,00 %
27.05.2015 17:45 13,4 C 56 % 1019,7 hPa 0,0 l/m 6,8 km/h (2 Bft) NW 325 0 min 0,000 mm 1,0 UV-I 240 W/m 4,8 C 13,2 C 11,9 km/h (2 Bft) 0,00 %
27.05.2015 18:00 14,4 C 51 % 1019,6 hPa 0,0 l/m 0,4 km/h (0 Bft) S 182 15 min 0,000 mm 1,0 UV-I 627 W/m 4,4 C 14,4 C 4,0 km/h (1 Bft) 0,00 %
27.05.2015 18:15 13,6 C 54 % 1019,6 hPa 0,0 l/m 6,8 km/h (2 Bft) W-SW 241 0 min 0,000 mm 1,0 UV-I 177 W/m 4,5 C 13,4 C 7,9 km/h (2 Bft) 0,00 %
27.05.2015 18:30 13,1 C 55 % 1019,8 hPa 0,0 l/m 2,9 km/h (1 Bft) W-SW 255 0 min 0,000 mm 1,0 UV-I 175 W/m 4,3 C 13,1 C 7,9 km/h (2 Bft) 0,00 %
27.05.2015 18:45 13,3 C 53 % 1019,9 hPa 0,0 l/m 4,3 km/h (1 Bft) W-SW 256 15 min 0,000 mm 1,0 UV-I 208 W/m 3,9 C 13,3 C 7,9 km/h (2 Bft) 0,00 %
27.05.2015 19:00 14,2 C 51 % 1019,4 hPa 0,0 l/m 3,2 km/h (1 Bft) S 187 15 min 0,000 mm 1,0 UV-I 498 W/m 4,2 C 14,2 C 7,9 km/h (2 Bft) 0,00 %
27.05.2015 19:15 12,9 C 56 % 1019,6 hPa 0,0 l/m 0,0 km/h (0 Bft) SO 131 0 min 0,000 mm 1,0 UV-I 117 W/m 4,3 C 12,9 C 0,0 km/h (0 Bft) 0,00 %
27.05.2015 19:30 12,9 C 57 % 1019,8 hPa 0,0 l/m 2,2 km/h (1 Bft) S-SW 207 15 min 0,000 mm 1,0 UV-I 114 W/m 4,6 C 12,9 C 4,0 km/h (1 Bft) 0,00 %
27.05.2015 19:45 12,2 C 58 % 1019,8 hPa 0,0 l/m 1,8 km/h (1 Bft) W-SW 255 15 min 0,000 mm 0,0 UV-I 95 W/m 4,2 C 12,2 C 4,0 km/h (1 Bft) 0,00 %
27.05.2015 20:00 11,7 C 60 % 1020,0 hPa 0,0 l/m 2,9 km/h (1 Bft) W-SW 255 0 min 0,000 mm 0,0 UV-I 49 W/m 4,2 C 11,7 C 4,0 km/h (1 Bft) 0,00 %
27.05.2015 20:15 11,3 C 60 % 1020,2 hPa 0,0 l/m 3,2 km/h (1 Bft) W-SW 251 0 min 0,000 mm 0,0 UV-I 34 W/m 3,8 C 11,3 C 7,9 km/h (2 Bft) 0,00 %
27.05.2015 20:30 11,0 C 60 % 1020,4 hPa 0,0 l/m 0,0 km/h (0 Bft) SW 216 0 min 0,000 mm 0,0 UV-I 8 W/m 3,5 C 11,0 C 0,0 km/h (0 Bft) 0,00 %
27.05.2015 20:45 10,8 C 60 % 1020,5 hPa 0,0 l/m 0,0 km/h (0 Bft) SW 234 0 min 0,000 mm 0,0 UV-I 1 W/m 3,4 C 10,8 C 0,0 km/h (0 Bft) 0,00 %
27.05.2015 21:00 10,6 C 63 % 1020,7 hPa 0,0 l/m 3,2 km/h (1 Bft) W-SW 255 0 min 0,000 mm 0,0 UV-I 0 W/m 3,9 C 10,6 C 7,9 km/h (2 Bft) 0,00 %
27.05.2015 21:15 10,3 C 65 % 1021,1 hPa 0,0 l/m 3,2 km/h (1 Bft) W-SW 251 0 min 0,000 mm 0,0 UV-I 0 W/m 4,0 C 10,3 C 4,0 km/h (1 Bft) 0,00 %
27.05.2015 21:30 10,4 C 62 % 1021,3 hPa 0,0 l/m 0,0 km/h (0 Bft) S 183 0 min 0,000 mm 0,0 UV-I 0 W/m 3,4 C 10,4 C 0,0 km/h (0 Bft) 0,00 %
27.05.2015 21:45 10,3 C 65 % 1021,3 hPa 0,0 l/m 0,0 km/h (0 Bft) W-SW 237 0 min 0,000 mm 0,0 UV-I 0 W/m 4,0 C 10,3 C 0,0 km/h (0 Bft) 0,00 %
27.05.2015 22:00 10,3 C 64 % 1021,4 hPa 0,0 l/m 0,4 km/h (0 Bft) S 186 0 min 0,000 mm 0,0 UV-I 0 W/m 3,8 C 10,3 C 4,0 km/h (1 Bft) 0,00 %
27.05.2015 22:15 10,2 C 64 % 1021,3 hPa 0,0 l/m 0,0 km/h (0 Bft) S-SW 203 0 min 0,000 mm 0,0 UV-I 0 W/m 3,7 C 10,2 C 0,0 km/h (0 Bft) 0,00 %
27.05.2015 22:30 10,0 C 66 % 1021,5 hPa 0,0 l/m 0,0 km/h (0 Bft) S 183 0 min 0,000 mm 0,0 UV-I 0 W/m 3,9 C 10,0 C 0,0 km/h (0 Bft) 0,00 %
27.05.2015 22:45 9,8 C 67 % 1021,3 hPa 0,0 l/m 0,0 km/h (0 Bft) S 191 0 min 0,000 mm 0,0 UV-I 0 W/m 4,0 C 9,8 C 0,0 km/h (0 Bft) 0,00 %
27.05.2015 23:00 9,7 C 68 % 1021,3 hPa 0,0 l/m 0,0 km/h (0 Bft) S-SW 205 0 min 0,000 mm 0,0 UV-I 0 W/m 4,1 C 9,7 C 0,0 km/h (0 Bft) 0,00 %
27.05.2015 23:15 9,6 C 70 % 1021,2 hPa 0,0 l/m 0,0 km/h (0 Bft) SW 230 0 min 0,000 mm 0,0 UV-I 0 W/m 4,4 C 9,6 C 0,0 km/h (0 Bft) 0,00 %
27.05.2015 23:30 9,5 C 70 % 1021,2 hPa 0,0 l/m 0,0 km/h (0 Bft) S-SW 194 0 min 0,000 mm 0,0 UV-I 0 W/m 4,3 C 9,5 C 0,0 km/h (0 Bft) 0,00 %
27.05.2015 23:45 9,4 C 72 % 1021,2 hPa 0,0 l/m 0,0 km/h (0 Bft) SW 219 0 min 0,000 mm 0,0 UV-I 0 W/m 4,6 C 9,4 C 0,0 km/h (0 Bft) 0,00 %
_ Min-Zeit 05:00 18:00 00:00 - 00:30 - - - - - - 20:45 14:45 00:30 00:00
Minimum _ 8,3 C 51 % 1018,2 hPa - 0,0 km/h (0 Bft) - - - - - - 3,4 C 7,6 C 0,0 km/h (0 Bft) 0,00 %
_ Max-Zeit 18:00 05:00 22:30 00:00 14:45 - - 12:00 00:00 11:45 17:15 14:00 18:00 14:45 00:00
Maximum _ 14,4 C 84 % 1021,5 hPa 0,0 l/m 15,8 km/h
W-SW (3 Bft)
- - 15 min 0,000 mm 4,0 UV-I 849 W/m 6,8 C 14,4 C 19,8 km/h
W-SW (3 Bft)
0,00 %
Durchschnitt _ 10,7 C 70 % 1020,2 hPa #0,0 l/m 1,7 km/h (1 Bft) W-SW - #2:30 h #0,000 mm 1,5 UV-I 200 W/m 5,4 C 10,6 C 3,6 km/h (1 Bft) 0,00 %